Time;durP1;ratioP1;P1;durP2;ratioP2;P2;SDS_P1;SDS_P2;PMS_P1;PMS_P2;Temp;Humidity;BMP_temperature;BMP_pressure;BME280_temperature;BME280_humidity;BME280_pressure;Samples;Min_cycle;Max_cycle;Signal;HPM_P1;HPM_P2
2021/07/30 00:00:29;;;;;;;2.02;1.10;;;;;;;19.66;100.00;99918.34;1755620;81;21022;-89
2021/07/30 00:02:56;;;;;;;2.10;1.02;;;;;;;19.65;100.00;99918.09;1753464;81;21056;-91
2021/07/30 00:05:23;;;;;;;1.92;1.15;;;;;;;19.64;100.00;99919.27;1753420;81;21056;-90
2021/07/30 00:07:49;;;;;;;1.25;1.15;;;;;;;19.59;100.00;99911.21;1755178;80;21528;-90
2021/07/30 00:10:16;;;;;;;1.30;1.00;;;;;;;19.60;100.00;99926.67;1760945;81;21711;-90
2021/07/30 00:12:43;;;;;;;2.80;1.27;;;;;;;19.60;100.00;99926.67;1761362;81;21080;-91
2021/07/30 00:15:10;;;;;;;1.25;1.07;;;;;;;19.58;100.00;99928.98;1751993;81;21060;-90
2021/07/30 00:17:38;;;;;;;1.22;1.12;;;;;;;19.56;100.00;99931.33;1685316;81;21062;-89
2021/07/30 00:20:06;;;;;;;2.00;1.02;;;;;;;19.54;100.00;99936.41;1761059;81;21030;-88
2021/07/30 00:22:33;;;;;;;1.20;0.90;;;;;;;19.50;100.00;99939.64;1730958;81;20946;-89
2021/07/30 00:24:59;;;;;;;2.35;1.25;;;;;;;19.43;100.00;99949.13;1757951;78;21168;-88
2021/07/30 00:27:26;;;;;;;0.68;0.65;;;;;;;19.43;100.00;99949.13;1762413;81;21059;-89
2021/07/30 00:29:55;;;;;;;1.92;1.30;;;;;;;19.32;100.00;99945.47;1762125;81;21032;-88
2021/07/30 00:32:21;;;;;;;1.77;1.40;;;;;;;19.32;100.00;99945.47;1770821;80;21499;-90
2021/07/30 00:34:48;;;;;;;0.80;0.80;;;;;;;19.30;100.00;99943.62;1760706;80;21057;-90
2021/07/30 00:37:14;;;;;;;1.20;0.90;;;;;;;19.24;100.00;99943.66;1761354;81;21053;-89
2021/07/30 00:39:41;;;;;;;2.60;0.85;;;;;;;19.18;100.00;99935.34;1735089;81;21089;-90
2021/07/30 00:42:08;;;;;;;2.08;1.30;;;;;;;19.14;100.00;99937.22;1791593;79;21536;-90
2021/07/30 00:44:35;;;;;;;2.05;1.30;;;;;;;19.10;100.00;99941.25;1739507;81;21061;-90
2021/07/30 00:47:03;;;;;;;1.90;1.17;;;;;;;19.09;100.00;99947.16;1763540;79;21050;-88
2021/07/30 00:49:31;;;;;;;1.62;0.98;;;;;;;19.09;100.00;99952.70;1767643;80;21044;-89
2021/07/30 00:51:59;;;;;;;1.40;1.10;;;;;;;19.08;100.00;99956.02;1766248;79;21017;-90
2021/07/30 00:54:27;;;;;;;1.30;1.00;;;;;;;19.07;100.00;99966.88;1795774;80;21030;-91
2021/07/30 00:56:57;;;;;;;2.22;1.57;;;;;;;19.06;100.00;99970.78;1786116;79;21090;-91
2021/07/30 00:59:31;;;;;;;1.82;1.10;;;;;;;19.05;100.00;99975.30;1735112;81;25681;-89
2021/07/30 01:02:00;;;;;;;2.20;1.40;;;;;;;19.05;100.00;99975.30;1776321;79;21077;-88
2021/07/30 01:04:30;;;;;;;1.55;1.35;;;;;;;19.04;100.00;99981.98;1793798;79;21056;-91
2021/07/30 01:07:02;;;;;;;2.08;1.30;;;;;;;19.04;100.00;99976.44;1793435;80;21027;-89
2021/07/30 01:09:30;;;;;;;0.82;0.80;;;;;;;19.02;100.00;99988.47;1793371;79;21091;-90
2021/07/30 01:12:02;;;;;;;1.07;0.98;;;;;;;18.98;100.00;99993.08;1792407;78;21061;-90
2021/07/30 01:14:29;;;;;;;3.22;1.00;;;;;;;18.95;100.00;99991.00;1812818;79;21477;-90
2021/07/30 01:16:58;;;;;;;1.10;1.00;;;;;;;18.94;100.00;99992.14;1756005;80;21080;-90
2021/07/30 01:19:26;;;;;;;3.02;1.20;;;;;;;18.92;100.00;99988.36;1774142;80;21525;-89
2021/07/30 01:21:53;;;;;;;2.15;1.40;;;;;;;18.91;100.00;99983.95;1743443;81;21045;-89
2021/07/30 01:24:24;;;;;;;1.50;1.27;;;;;;;18.87;100.00;99988.00;1750793;80;21018;-90
2021/07/30 01:26:52;;;;;;;3.62;1.32;;;;;;;18.84;100.00;99985.94;1782589;80;21502;-90
2021/07/30 01:29:24;;;;;;;1.55;1.17;;;;;;;18.82;100.00;99977.75;1775700;80;21048;-90
2021/07/30 01:31:51;;;;;;;2.75;1.27;;;;;;;18.81;100.00;99982.45;1710434;82;21058;-91
2021/07/30 01:34:18;;;;;;;1.70;1.35;;;;;;;18.79;100.00;100001.39;1766891;80;21045;-90
2021/07/30 01:36:45;;;;;;;1.67;1.27;;;;;;;18.74;100.00;100015.98;1782626;80;21033;-91
2021/07/30 01:39:11;;;;;;;2.42;1.37;;;;;;;18.70;100.00;100018.64;1755840;80;21246;-91
2021/07/30 01:41:40;;;;;;;2.12;1.67;;;;;;;18.69;100.00;100022.00;1704796;82;21065;-91
2021/07/30 01:44:06;;;;;;;1.95;1.40;;;;;;;18.71;100.00;100028.55;1745646;80;21030;-89
2021/07/30 01:46:33;;;;;;;1.45;0.90;;;;;;;18.74;100.00;100027.05;1783435;80;21548;-91
2021/07/30 01:48:59;;;;;;;1.80;1.17;;;;;;;18.72;100.00;100021.88;1737730;80;21080;-91
2021/07/30 01:51:26;;;;;;;2.15;1.37;;;;;;;18.72;100.00;100014.97;1734552;81;21072;-89
2021/07/30 01:53:52;;;;;;;1.80;1.37;;;;;;;18.71;100.00;100020.25;1781675;80;21042;-91
2021/07/30 01:56:19;;;;;;;1.22;0.90;;;;;;;18.70;100.00;100022.80;1777838;80;22153;-91
2021/07/30 01:58:46;;;;;;;2.37;1.00;;;;;;;18.66;100.00;100021.86;1752904;81;21292;-91
2021/07/30 02:01:14;;;;;;;3.80;1.65;;;;;;;18.63;100.00;100019.79;1753939;81;21042;-89
2021/07/30 02:03:40;;;;;;;1.42;0.82;;;;;;;18.61;100.00;100024.27;1748257;81;21102;-91
2021/07/30 02:06:09;;;;;;;1.62;1.10;;;;;;;18.59;100.00;100028.53;1773487;80;21052;-91
2021/07/30 02:08:36;;;;;;;1.12;0.93;;;;;;;18.55;100.00;100021.52;1744337;81;21445;-90
2021/07/30 02:11:10;;;;;;;1.45;1.35;;;;;;;18.54;100.00;100020.46;1774765;80;21140;-91
2021/07/30 02:16:22;;;;;;;1.98;1.17;;;;;;;18.50;100.00;100027.84;1732055;81;21062;-91
2021/07/30 02:18:49;;;;;;;1.25;1.07;;;;;;;18.46;100.00;100027.13;1760030;81;21093;-88
2021/07/30 02:21:18;;;;;;;1.92;0.80;;;;;;;18.44;100.00;100029.42;1730391;81;47914;-91
2021/07/30 02:23:45;;;;;;;4.62;1.70;;;;;;;18.43;100.00;100024.25;1756351;80;21076;-87
2021/07/30 02:26:12;;;;;;;2.47;1.20;;;;;;;18.42;100.00;100040.05;1726875;81;21140;-88
2021/07/30 02:28:39;;;;;;;2.60;1.20;;;;;;;18.39;100.00;100040.71;1720959;82;21140;-91
2021/07/30 02:31:06;;;;;;;1.12;0.90;;;;;;;18.39;100.00;100042.09;1720172;82;21059;-88
2021/07/30 02:33:32;;;;;;;1.65;1.07;;;;;;;18.38;100.00;100047.98;1692849;82;21088;-90
2021/07/30 02:35:59;;;;;;;2.15;1.17;;;;;;;18.39;100.00;100049.01;1707903;84;21388;-90
2021/07/30 02:38:25;;;;;;;3.27;1.25;;;;;;;18.38;100.00;100050.17;1708270;84;21078;-90
2021/07/30 02:40:53;;;;;;;0.85;0.70;;;;;;;18.39;100.00;100052.36;1725442;82;21590;-89
2021/07/30 02:43:20;;;;;;;1.60;1.25;;;;;;;18.39;100.00;100056.50;1716703;82;21132;-88
2021/07/30 02:45:48;;;;;;;2.08;1.17;;;;;;;18.39;100.00;100060.08;1708935;84;21544;-88
2021/07/30 02:48:14;;;;;;;1.87;1.32;;;;;;;18.39;100.00;100063.42;1708733;82;22397;-88
2021/07/30 02:50:41;;;;;;;3.45;1.52;;;;;;;18.39;100.00;100058.69;1711596;81;21041;-89
2021/07/30 02:53:08;;;;;;;2.25;1.22;;;;;;;18.40;100.00;100068.63;1681200;83;21030;-88
2021/07/30 02:55:34;;;;;;;1.67;1.02;;;;;;;18.41;100.00;100063.31;1741140;82;21028;-91
2021/07/30 02:58:01;;;;;;;2.72;0.90;;;;;;;18.43;100.00;100065.16;1750899;81;20941;-91
2021/07/30 03:00:27;;;;;;;4.33;1.47;;;;;;;18.44;100.00;100064.00;1738735;81;21043;-91
2021/07/30 03:02:54;;;;;;;1.98;1.30;;;;;;;18.46;100.00;100060.33;1716348;82;21048;-92
2021/07/30 03:05:21;;;;;;;2.98;1.45;;;;;;;18.48;100.00;100060.80;1707900;84;21056;-92
2021/07/30 03:07:48;;;;;;;1.80;1.32;;;;;;;18.52;100.00;100065.64;1708834;82;21370;-90
2021/07/30 03:10:14;;;;;;;1.92;1.25;;;;;;;18.54;100.00;100063.34;1722415;82;21548;-89
2021/07/30 03:12:41;;;;;;;4.25;1.98;;;;;;;18.55;100.00;100073.28;1680652;84;21535;-91
2021/07/30 03:15:09;;;;;;;2.33;1.40;;;;;;;18.58;100.00;100075.35;1708128;84;21065;-88
2021/07/30 03:17:35;;;;;;;2.30;1.57;;;;;;;18.59;100.00;100075.58;1708152;82;21076;-91
2021/07/30 03:20:05;;;;;;;1.42;1.30;;;;;;;18.60;100.00;100078.59;1708928;82;21033;-93
2021/07/30 03:22:30;;;;;;;2.33;1.27;;;;;;;18.59;100.00;100083.88;1708037;83;21136;-91
2021/07/30 03:24:57;;;;;;;5.00;1.40;;;;;;;18.62;100.00;100081.80;1722679;81;21104;-91
2021/07/30 03:27:24;;;;;;;1.77;1.20;;;;;;;18.65;100.00;100085.28;1766006;80;21028;-88
2021/07/30 03:29:51;;;;;;;2.00;1.40;;;;;;;18.69;100.00;100090.35;1782253;80;21980;-90
2021/07/30 03:32:19;;;;;;;2.30;1.72;;;;;;;18.73;100.00;100100.17;1761572;80;21270;-89
2021/07/30 03:34:46;;;;;;;1.30;1.05;;;;;;;18.75;100.00;100099.27;1753721;81;21005;-92
2021/07/30 03:37:13;;;;;;;2.55;1.25;;;;;;;18.76;100.00;100092.02;1758658;80;21028;-89
2021/07/30 03:39:40;;;;;;;2.62;1.40;;;;;;;18.82;100.00;100103.69;1758239;80;21650;-89
2021/07/30 03:42:07;;;;;;;2.67;1.40;;;;;;;18.87;100.00;100097.94;1756796;81;20963;-91
2021/07/30 03:44:34;;;;;;;1.45;1.17;;;;;;;18.93;100.00;100088.81;1747947;82;21061;-89
2021/07/30 03:47:00;;;;;;;1.50;1.15;;;;;;;19.03;100.00;100091.13;1772027;79;21056;-89
2021/07/30 03:49:27;;;;;;;2.00;1.35;;;;;;;19.15;100.00;100095.30;1762820;81;21102;-90
2021/07/30 03:51:54;;;;;;;4.35;2.08;;;;;;;19.28;100.00;100094.13;1760821;81;21133;-87
2021/07/30 03:54:21;;;;;;;1.70;1.60;;;;;;;19.42;100.00;100106.25;1733365;82;21072;-90
2021/07/30 03:56:48;;;;;;;4.78;1.82;;;;;;;19.53;100.00;100103.81;1779684;79;21026;-91
2021/07/30 03:59:15;;;;;;;4.97;1.82;;;;;;;19.69;100.00;100081.77;1745296;80;21606;-89
2021/07/30 04:01:48;;;;;;;3.35;1.70;;;;;;;19.97;100.00;100103.98;1744430;80;21102;-89
2021/07/30 04:04:15;;;;;;;3.08;2.00;;;;;;;19.97;100.00;100103.98;1760949;80;21105;-90
2021/07/30 04:06:44;;;;;;;3.08;1.92;;;;;;;20.08;100.00;100109.84;1731731;80;21142;-90
2021/07/30 04:09:12;;;;;;;3.02;1.77;;;;;;;20.21;100.00;100114.20;1732744;81;21128;-88
2021/07/30 04:11:39;;;;;;;3.33;1.85;;;;;;;20.35;100.00;100111.01;1743145;80;21093;-88
2021/07/30 04:14:06;;;;;;;1.98;1.80;;;;;;;20.47;100.00;100108.77;1732538;79;21056;-93
2021/07/30 04:16:36;;;;;;;2.37;2.02;;;;;;;20.60;100.00;100108.98;1724691;79;21032;-93
2021/07/30 04:19:04;;;;;;;;;;;;;;;20.69;100.00;100112.38;1763054;80;21480;-92
2021/07/30 04:21:31;;;;;;;3.90;2.02;;;;;;;20.78;100.00;100111.63;1760616;80;20980;-93
2021/07/30 04:27:16;;;;;;;2.92;2.00;;;;;;;21.05;100.00;100111.34;1795091;78;23939;-87
2021/07/30 05:21:07;;;;;;;6.58;3.95;;;;;;;22.85;100.00;100130.54;1783855;80;21721;-87
2021/07/30 05:53:43;;;;;;;3.25;2.40;;;;;;;24.53;100.00;100147.66;1685508;82;21137;-87
2021/07/30 06:01:16;;;;;;;4.60;3.10;;;;;;;24.93;96.01;100148.30;1721438;82;21000;-86
2021/07/30 06:13:04;;;;;;;4.95;3.42;;;;;;;25.36;91.63;100145.10;1704498;80;21086;-89
2021/07/30 06:21:15;;;;;;;4.25;2.75;;;;;;;25.69;88.58;100146.36;1684149;85;21146;-89
2021/07/30 07:13:49;;;;;;;2.30;2.05;;;;;;;27.38;73.20;100166.00;1753035;80;20996;-88
2021/07/30 07:41:30;;;;;;;7.05;2.55;;;;;;;28.11;66.29;100168.91;1721932;82;21197;-87
2021/07/30 07:57:26;;;;;;;3.17;2.55;;;;;;;28.65;67.61;100161.69;1725031;78;82883;-90
2021/07/30 07:59:53;;;;;;;3.35;2.50;;;;;;;28.79;65.98;100163.02;1714568;83;21102;-86
2021/07/30 08:02:19;;;;;;;2.83;2.30;;;;;;;28.91;65.99;100164.56;1720820;81;21074;-90
2021/07/30 08:04:46;;;;;;;4.53;2.50;;;;;;;29.08;65.21;100160.03;1719143;83;21521;-86
2021/07/30 08:07:17;;;;;;;3.58;2.37;;;;;;;29.25;64.29;100160.50;1719090;83;21087;-89
2021/07/30 08:09:44;;;;;;;3.98;2.72;;;;;;;29.33;63.93;100161.27;1719129;83;21098;-89
2021/07/30 08:12:10;;;;;;;3.02;2.25;;;;;;;29.34;65.38;100156.61;1715887;83;21080;-88
2021/07/30 08:14:39;;;;;;;2.95;2.35;;;;;;;29.40;64.82;100154.14;1690211;83;21059;-91
2021/07/30 08:17:06;;;;;;;4.85;2.70;;;;;;;29.47;63.58;100154.08;1682911;85;21077;-89
2021/07/30 08:19:36;;;;;;;3.02;1.98;;;;;;;29.49;62.87;100153.06;1656209;83;21118;-89
2021/07/30 08:22:03;;;;;;;4.10;2.42;;;;;;;29.46;63.67;100151.70;1710423;83;21068;-91
2021/07/30 08:24:30;;;;;;;2.90;2.60;;;;;;;29.34;63.95;100151.59;1711018;83;21071;-91
2021/07/30 08:26:56;;;;;;;3.98;2.52;;;;;;;29.33;63.10;100152.21;1711056;83;21520;-89
2021/07/30 08:29:23;;;;;;;3.27;2.85;;;;;;;29.28;63.15;100149.05;1698941;84;21085;-91
2021/07/30 08:31:49;;;;;;;2.80;2.00;;;;;;;29.24;63.10;100151.09;1698488;84;21073;-89
2021/07/30 08:34:16;;;;;;;4.28;2.25;;;;;;;29.21;62.80;100150.52;1698828;84;21077;-93
2021/07/30 08:36:43;;;;;;;3.02;2.30;;;;;;;29.15;63.28;100150.95;1731952;82;21008;-90
2021/07/30 08:39:09;;;;;;;4.60;2.22;;;;;;;29.12;63.00;100157.39;1734972;82;20983;-89
2021/07/30 08:41:36;;;;;;;3.25;2.35;;;;;;;29.11;63.70;100157.20;1733133;82;21019;-89
2021/07/30 08:44:03;;;;;;;4.42;2.80;;;;;;;29.11;64.13;100147.36;1732144;82;21426;-89
2021/07/30 08:46:31;;;;;;;3.58;2.30;;;;;;;29.19;65.45;100159.97;1731150;82;21054;-90
2021/07/30 08:48:58;;;;;;;4.50;2.55;;;;;;;29.35;63.37;100151.20;1731907;82;21060;-90
2021/07/30 08:51:26;;;;;;;3.70;2.47;;;;;;;29.51;61.81;100152.66;1730991;82;21538;-88
2021/07/30 08:53:52;;;;;;;3.27;2.45;;;;;;;29.62;62.50;100151.14;1701382;82;21040;-90
2021/07/30 08:56:19;;;;;;;3.62;2.42;;;;;;;29.74;60.90;100153.47;1724195;83;21036;-90
2021/07/30 08:58:46;;;;;;;3.25;2.50;;;;;;;29.83;60.40;100150.97;1708444;83;21050;-88
2021/07/30 09:01:13;;;;;;;3.62;2.52;;;;;;;29.84;59.46;100142.69;1702881;83;21070;-90
2021/07/30 09:03:43;;;;;;;3.22;2.65;;;;;;;29.64;60.51;100148.09;1718747;83;21495;-90
2021/07/30 09:06:20;;;;;;;3.50;2.40;;;;;;;29.68;59.05;100153.13;1720408;82;21094;-90
2021/07/30 09:09:02;;;;;;;2.85;2.42;;;;;;;29.78;58.53;100150.02;1722959;82;21098;-93
2021/07/30 09:11:32;;;;;;;2.40;2.15;;;;;;;29.91;59.70;100156.70;1703648;83;21053;-90
2021/07/30 09:14:05;;;;;;;2.90;2.27;;;;;;;30.07;58.14;100145.45;1711186;83;21038;-91
2021/07/30 09:16:51;;;;;;;3.77;2.35;;;;;;;30.13;58.10;100145.98;1697639;83;21031;-90
2021/07/30 09:19:17;;;;;;;3.95;2.75;;;;;;;30.11;57.48;100145.61;1694633;84;21086;-91
2021/07/30 09:21:44;;;;;;;2.52;2.10;;;;;;;30.10;57.04;100142.61;1696227;84;21481;-90
2021/07/30 09:24:15;;;;;;;4.62;2.58;;;;;;;30.18;56.33;100140.50;1684844;83;21045;-91
2021/07/30 09:26:47;;;;;;;2.08;1.87;;;;;;;30.12;56.96;100143.00;1682978;84;21068;-90
2021/07/30 09:29:20;;;;;;;4.50;2.30;;;;;;;30.13;59.30;100146.61;1672862;84;21570;-89
2021/07/30 09:31:56;;;;;;;2.65;2.33;;;;;;;30.25;57.17;100136.22;1685798;83;21048;-90
2021/07/30 09:34:40;;;;;;;3.02;2.27;;;;;;;30.30;57.05;100137.16;1694000;84;21022;-91
2021/07/30 09:37:11;;;;;;;3.02;2.52;;;;;;;30.35;56.94;100138.10;1693444;84;21159;-91
2021/07/30 09:39:49;;;;;;;2.85;2.30;;;;;;;30.33;57.55;100138.34;1696149;84;21281;-90
2021/07/30 09:42:22;;;;;;;3.25;2.40;;;;;;;30.28;57.22;100138.19;1695514;84;21083;-91
2021/07/30 09:45:02;;;;;;;4.03;2.42;;;;;;;30.17;57.97;100131.87;1697974;84;22157;-91
2021/07/30 09:47:34;;;;;;;3.87;2.20;;;;;;;30.12;58.54;100142.17;1695591;83;21106;-91
2021/07/30 09:50:05;;;;;;;3.12;2.02;;;;;;;30.25;56.55;100136.22;1666575;84;21053;-93
2021/07/30 09:52:41;;;;;;;2.72;2.37;;;;;;;30.32;55.98;100131.91;1695350;84;21152;-92
2021/07/30 09:55:11;;;;;;;2.52;2.33;;;;;;;30.22;56.28;100139.86;1694692;83;20983;-91
2021/07/30 09:57:39;;;;;;;2.83;2.37;;;;;;;30.27;55.61;100145.06;1674671;84;21558;-90
2021/07/30 10:00:09;;;;;;;2.00;1.75;;;;;;;30.34;56.41;100140.75;1696101;84;21098;-90
2021/07/30 10:02:38;;;;;;;3.70;2.60;;;;;;;30.44;56.72;100139.01;1695623;83;21063;-91
2021/07/30 10:05:12;;;;;;;3.40;2.72;;;;;;;30.54;57.09;100138.65;1673676;84;21138;-90
2021/07/30 10:07:41;;;;;;;3.85;2.22;;;;;;;30.62;58.36;100138.76;1667183;84;21118;-90
2021/07/30 10:10:13;;;;;;;3.12;2.55;;;;;;;30.69;57.03;100135.84;1696588;84;21152;-90
2021/07/30 10:12:46;;;;;;;3.20;2.85;;;;;;;30.77;56.52;100133.09;1674054;84;21126;-91
2021/07/30 10:15:10;;;;;;;3.08;2.35;;;;;;;30.77;55.66;100140.14;1696273;83;21066;-90
2021/07/30 10:17:40;;;;;;;3.75;2.40;;;;;;;30.62;55.98;100141.58;1667759;85;21130;-90
2021/07/30 10:20:07;;;;;;;2.80;2.40;;;;;;;30.50;55.46;100144.34;1682224;84;21082;-90
2021/07/30 10:22:56;;;;;;;3.30;2.83;;;;;;;30.53;55.76;100135.66;1696858;84;21087;-90
2021/07/30 10:25:33;;;;;;;3.02;2.50;;;;;;;30.53;56.59;100134.24;1695879;84;21014;-90
2021/07/30 10:28:25;;;;;;;3.83;2.67;;;;;;;30.48;54.77;100138.95;1694446;84;21131;-90
2021/07/30 10:31:08;;;;;;;3.50;2.42;;;;;;;30.52;55.48;100141.12;1687295;84;21055;-90
2021/07/30 10:33:40;;;;;;;3.25;2.30;;;;;;;30.58;56.08;100140.81;1716646;82;20983;-90
2021/07/30 10:36:17;;;;;;;3.87;3.08;;;;;;;30.62;56.17;100137.34;1737819;82;20991;-90
2021/07/30 10:38:40;;;;;;;3.10;2.80;;;;;;;30.63;55.04;100136.11;1717156;82;21114;-91
2021/07/30 10:41:13;;;;;;;2.90;2.20;;;;;;;30.64;55.76;100127.86;1685410;82;21067;-90
2021/07/30 10:43:57;;;;;;;3.12;2.37;;;;;;;30.72;54.91;100135.59;1693840;84;21059;-89
2021/07/30 10:46:24;;;;;;;3.42;2.60;;;;;;;30.84;54.21;100136.45;1694115;84;21308;-89
2021/07/30 10:48:54;;;;;;;4.00;2.85;;;;;;;30.99;53.50;100127.95;1695025;84;21054;-90
2021/07/30 10:51:25;;;;;;;3.90;2.47;;;;;;;31.02;53.56;100123.48;1695273;83;21042;-89
2021/07/30 10:54:10;;;;;;;2.33;2.00;;;;;;;31.09;51.73;100130.42;1694697;83;21027;-89
2021/07/30 10:56:41;;;;;;;2.92;2.37;;;;;;;31.19;50.57;100128.65;1683408;84;21043;-89
2021/07/30 10:59:08;;;;;;;3.02;2.37;;;;;;;31.30;49.67;100132.07;1686589;83;21055;-92
2021/07/30 11:01:42;;;;;;;2.90;2.17;;;;;;;31.36;49.65;100125.34;1682479;85;21512;-91
2021/07/30 11:04:10;;;;;;;2.52;2.33;;;;;;;31.41;50.81;100133.34;1658849;85;21666;-92
2021/07/30 11:06:46;;;;;;;4.40;2.62;;;;;;;31.51;50.05;100126.71;1682249;85;21010;-91
2021/07/30 11:09:16;;;;;;;3.95;2.55;;;;;;;31.47;50.86;100124.55;1682611;85;21061;-94
2021/07/30 11:14:37;;;;;;;2.70;2.45;;;;;;;30.89;50.42;100123.90;1865759;76;23364;-93
2021/07/30 11:17:07;;;;;;;2.37;1.90;;;;;;;30.70;52.38;100121.12;1736423;81;21111;-93
2021/07/30 11:19:38;;;;;;;3.70;2.72;;;;;;;30.70;52.14;100117.69;1731090;82;21077;-92
2021/07/30 11:22:14;;;;;;;2.02;1.82;;;;;;;30.88;51.88;100118.05;1742239;82;21062;-91
2021/07/30 11:24:46;;;;;;;3.45;2.22;;;;;;;30.92;50.63;100113.16;1756966;80;21084;-92
2021/07/30 11:27:16;;;;;;;1.90;1.77;;;;;;;30.85;50.34;100110.63;1748576;81;21052;-92
2021/07/30 11:29:46;;;;;;;3.15;2.22;;;;;;;30.86;49.97;100102.95;1706428;82;21080;-91
2021/07/30 11:32:15;;;;;;;3.10;2.27;;;;;;;30.92;50.59;100104.08;1715547;82;21057;-92
2021/07/30 11:34:48;;;;;;;2.52;2.08;;;;;;;31.11;50.22;100109.62;1704587;82;21116;-92
2021/07/30 11:37:26;;;;;;;2.60;2.20;;;;;;;31.43;50.99;100102.64;1743243;82;21046;-91
2021/07/30 11:40:02;;;;;;;2.95;2.33;;;;;;;31.74;48.23;100101.86;1726227;82;21124;-96
2021/07/30 11:42:34;;;;;;;2.92;2.12;;;;;;;31.96;46.91;100090.97;1715756;82;21053;-91
2021/07/30 11:45:04;;;;;;;2.35;1.70;;;;;;;32.13;45.27;100101.10;1702496;82;21061;-90
2021/07/30 11:47:32;;;;;;;2.80;2.00;;;;;;;32.28;45.35;100100.80;1696196;84;21045;-91
2021/07/30 11:50:11;;;;;;;2.62;2.30;;;;;;;32.32;43.35;100098.08;1693392;84;21036;-90
2021/07/30 11:52:39;;;;;;;4.50;2.58;;;;;;;32.42;43.10;100100.49;1723340;81;21091;-92
2021/07/30 11:55:21;;;;;;;2.58;2.27;;;;;;;32.37;42.81;100089.70;1745252;82;21081;-92
2021/07/30 11:57:51;;;;;;;3.87;2.65;;;;;;;32.27;44.20;100089.30;1740819;82;21009;-91
2021/07/30 12:00:27;;;;;;;3.65;2.15;;;;;;;32.32;44.69;100084.54;1748189;82;21014;-92
2021/07/30 12:02:54;;;;;;;2.83;2.00;;;;;;;32.65;43.95;100073.34;1718414;81;20985;-90
2021/07/30 12:05:34;;;;;;;4.08;2.15;;;;;;;33.05;43.56;100078.86;1757642;81;21035;-91
2021/07/30 12:08:01;;;;;;;3.52;2.40;;;;;;;33.38;42.17;100083.25;1757160;81;21044;-91
2021/07/30 12:10:28;;;;;;;2.98;2.42;;;;;;;33.65;41.74;100073.64;1757382;81;21020;-89
2021/07/30 12:12:59;;;;;;;2.75;2.00;;;;;;;33.81;40.69;100071.39;1756784;80;21085;-89
2021/07/30 12:15:25;;;;;;;2.60;2.22;;;;;;;33.79;39.19;100076.70;1757337;81;21105;-87
2021/07/30 12:18:03;;;;;;;2.45;2.12;;;;;;;33.69;38.45;100068.67;1758698;81;21037;-90
2021/07/30 12:20:38;;;;;;;2.85;2.20;;;;;;;33.61;39.22;100067.30;1726777;82;21064;-87
2021/07/30 12:23:15;;;;;;;3.45;2.50;;;;;;;33.48;37.93;100069.23;1736262;82;21001;-87
2021/07/30 12:25:48;;;;;;;3.15;2.10;;;;;;;33.26;38.81;100062.75;1736672;81;21115;-90
2021/07/30 12:28:14;;;;;;;3.15;2.37;;;;;;;32.98;39.51;100062.82;1744587;79;20946;-86
2021/07/30 12:30:40;;;;;;;2.62;2.20;;;;;;;32.85;40.01;100054.88;1744473;82;21151;-86
2021/07/30 12:33:30;;;;;;;3.62;2.60;;;;;;;32.73;39.59;100056.37;1743852;82;21053;-90
2021/07/30 12:36:06;;;;;;;3.42;2.80;;;;;;;32.59;39.67;100049.02;1732652;81;21069;-90
2021/07/30 12:38:33;;;;;;;13.05;3.67;;;;;;;32.48;39.35;100050.66;1743340;82;21089;-88
2021/07/30 12:41:20;;;;;;;20.35;8.38;;;;;;;32.50;39.80;100048.22;1734092;81;21835;-89
2021/07/30 12:43:47;;;;;;;3.00;2.15;;;;;;;32.49;41.13;100048.65;1730665;82;21036;-89
2021/07/30 12:46:39;;;;;;;3.40;2.75;;;;;;;32.52;40.35;100052.83;1739515;82;21029;-87
2021/07/30 12:49:07;;;;;;;3.50;2.45;;;;;;;32.69;39.70;100049.99;1652847;85;21085;-88
2021/07/30 12:51:34;;;;;;;3.08;2.58;;;;;;;32.92;38.10;100048.41;1664969;85;21042;-88
2021/07/30 12:54:10;;;;;;;4.28;2.52;;;;;;;33.05;38.30;100046.31;1677487;84;21092;-88
2021/07/30 12:56:59;;;;;;;3.35;2.90;;;;;;;33.20;37.18;100046.91;1735017;82;21583;-89
2021/07/30 13:00:08;;;;;;;21.73;7.60;;;;;;;33.47;37.62;100042.16;1725288;81;21055;-91
2021/07/30 13:02:39;;;;;;;4.40;2.98;;;;;;;33.67;37.87;100042.04;1715949;82;21039;-88
2021/07/30 13:05:08;;;;;;;4.67;2.70;;;;;;;33.71;35.61;100039.28;1738332;82;21081;-90
2021/07/30 13:07:34;;;;;;;3.55;3.25;;;;;;;33.93;36.07;100035.20;1746593;82;21025;-88
2021/07/30 13:10:01;;;;;;;5.17;3.35;;;;;;;34.30;36.20;100032.08;1751040;80;21112;-88
2021/07/30 13:12:27;;;;;;;5.90;3.58;;;;;;;34.42;34.20;100034.13;1733373;81;21559;-91
2021/07/30 13:14:54;;;;;;;6.47;3.60;;;;;;;34.34;35.39;100034.98;1734952;81;21052;-91
2021/07/30 13:17:20;;;;;;;3.70;3.33;;;;;;;34.26;35.19;100041.50;1733621;81;21056;-90
2021/07/30 13:19:47;;;;;;;3.45;3.15;;;;;;;34.42;34.32;100034.13;1708024;84;21041;-91
2021/07/30 13:22:14;;;;;;;3.98;3.40;;;;;;;34.64;34.30;100030.02;1707628;82;21436;-88
2021/07/30 13:24:40;;;;;;;4.55;3.70;;;;;;;34.81;34.59;100026.41;1734297;82;21063;-88
2021/07/30 13:27:07;;;;;;;4.47;3.40;;;;;;;34.83;34.41;100023.92;1739645;81;21050;-91
2021/07/30 13:29:34;;;;;;;4.00;3.40;;;;;;;34.59;34.32;100027.12;1746727;82;21074;-92
2021/07/30 13:32:03;;;;;;;4.25;3.05;;;;;;;34.11;34.70;100029.66;1746096;82;21034;-89
2021/07/30 13:34:30;;;;;;;5.03;3.35;;;;;;;33.62;35.50;100024.34;1746626;82;21113;-92
2021/07/30 13:36:58;;;;;;;4.72;3.47;;;;;;;33.12;36.50;100023.49;1736355;81;21026;-90
2021/07/30 13:39:24;;;;;;;4.87;3.75;;;;;;;32.55;37.86;100019.41;1706344;82;21483;-91
2021/07/30 13:41:51;;;;;;;4.83;3.58;;;;;;;32.22;38.44;100019.16;1725957;80;21042;-89
2021/07/30 13:44:18;;;;;;;6.10;3.15;;;;;;;32.07;40.23;100016.67;1730020;82;21247;-89
2021/07/30 13:46:44;;;;;;;3.47;2.60;;;;;;;32.07;39.93;100011.61;1743739;82;21302;-91
2021/07/30 13:49:11;;;;;;;4.47;3.17;;;;;;;32.28;38.51;100001.87;1739780;82;21112;-90
2021/07/30 13:51:37;;;;;;;3.10;2.75;;;;;;;32.66;39.15;100009.87;1729316;82;21478;-89
2021/07/30 13:54:04;;;;;;;4.03;3.02;;;;;;;33.06;38.45;100009.69;1719458;82;21326;-91
2021/07/30 13:56:31;;;;;;;3.22;2.62;;;;;;;33.25;37.53;100003.11;1717054;82;21053;-89
2021/07/30 13:58:57;;;;;;;3.40;2.75;;;;;;;33.28;36.65;100001.42;1718962;82;21058;-90
2021/07/30 14:01:26;;;;;;;3.25;2.60;;;;;;;33.29;36.79;100001.61;1732593;82;21030;-88
2021/07/30 14:03:52;;;;;;;3.40;2.90;;;;;;;33.31;37.72;100004.17;1746731;82;21037;-88
2021/07/30 14:06:19;;;;;;;3.15;2.62;;;;;;;33.11;37.55;100002.07;1746005;82;21018;-89
2021/07/30 14:08:45;;;;;;;3.67;3.02;;;;;;;32.71;38.28;99999.44;1746696;82;21042;-89
2021/07/30 14:11:14;;;;;;;3.92;2.87;;;;;;;32.31;39.17;99999.56;1772563;80;21113;-92
2021/07/30 14:13:42;;;;;;;3.45;2.87;;;;;;;31.94;41.45;99998.78;1746642;81;21070;-91
2021/07/30 14:16:16;;;;;;;4.12;3.25;;;;;;;31.52;42.10;100001.86;1756791;80;21566;-89
2021/07/30 14:18:43;;;;;;;3.02;2.72;;;;;;;31.00;42.97;99999.77;1734422;81;21029;-89
2021/07/30 14:21:11;;;;;;;6.45;3.85;;;;;;;30.52;44.22;100005.80;1764287;81;21071;-88
2021/07/30 14:23:37;;;;;;;6.50;3.70;;;;;;;30.21;45.73;99995.95;1754460;78;21059;-88
2021/07/30 14:26:05;;;;;;;4.75;3.35;;;;;;;30.01;46.49;99995.22;1731340;82;21086;-88
2021/07/30 14:28:32;;;;;;;3.35;2.85;;;;;;;29.85;46.93;99996.47;1735049;81;21050;-93
2021/07/30 14:30:58;;;;;;;3.67;2.87;;;;;;;29.83;47.87;99997.49;1742101;81;21076;-92
2021/07/30 14:33:25;;;;;;;4.53;3.20;;;;;;;29.97;48.50;99994.49;1743851;81;21687;-92
2021/07/30 14:35:51;;;;;;;5.15;3.00;;;;;;;30.29;47.46;99991.86;1746429;81;21440;-87
2021/07/30 14:38:18;;;;;;;4.10;3.00;;;;;;;30.65;46.91;99988.46;1785983;80;21172;-91
2021/07/30 14:40:44;;;;;;;4.10;3.05;;;;;;;31.02;45.43;99986.66;1760620;80;21559;-92
2021/07/30 14:43:11;;;;;;;5.15;3.12;;;;;;;31.31;45.15;99986.09;1753073;80;21549;-88
2021/07/30 14:45:43;;;;;;;4.17;2.87;;;;;;;31.42;44.81;99986.73;1766736;80;21032;-87
2021/07/30 14:48:10;;;;;;;3.58;2.72;;;;;;;31.44;44.30;99987.09;1739920;81;21064;-87
2021/07/30 14:50:38;;;;;;;3.52;2.77;;;;;;;31.47;44.16;99980.57;1732665;81;21100;-91
2021/07/30 14:53:05;;;;;;;3.75;2.98;;;;;;;31.41;44.39;99985.94;1741113;81;21033;-87